createdAt,value
2022-12-09T00:01:54.827Z,16.7
2022-12-09T00:07:38.297Z,16.6
2022-12-09T00:12:46.742Z,16.5
2022-12-09T00:18:26.878Z,16.4
2022-12-09T00:23:34.036Z,16.7
2022-12-09T00:28:58.192Z,16.8
2022-12-09T00:34:39.658Z,16.9
2022-12-09T00:40:20.221Z,16.8
2022-12-09T00:46:00.147Z,16.8
2022-12-09T00:51:25.817Z,16.6
2022-12-09T00:57:06.064Z,16.6
2022-12-09T01:02:45.935Z,16.4
2022-12-09T01:08:27.279Z,16.4
2022-12-09T01:13:52.007Z,16.8
2022-12-09T01:19:16.725Z,16.8
2022-12-09T01:24:57.567Z,16.8
2022-12-09T01:30:22.589Z,16.8
2022-12-09T01:35:46.777Z,16.6
2022-12-09T01:40:57.773Z,16.6
2022-12-09T01:46:37.497Z,16.4
2022-12-09T01:52:17.020Z,16.5
2022-12-09T01:57:58.216Z,16.8
2022-12-09T02:03:40.854Z,16.8
2022-12-09T02:09:22.364Z,16.8
2022-12-09T02:15:02.739Z,16.7
2022-12-09T02:20:44.855Z,16.6
2022-12-09T02:26:09.535Z,16.5
2022-12-09T02:31:51.281Z,16.4
2022-12-09T02:37:32.904Z,16.5
2022-12-09T02:43:11.554Z,16.8
2022-12-09T02:48:59.222Z,16.8
2022-12-09T02:54:40.779Z,16.7
2022-12-09T02:59:50.257Z,16.6
2022-12-09T03:05:18.454Z,16.5
2022-12-09T03:10:59.376Z,16.5
2022-12-09T03:16:40.289Z,16.4
2022-12-09T03:22:21.922Z,16.3
2022-12-09T03:27:47.184Z,16.4
2022-12-09T03:33:14.524Z,16.7
2022-12-09T03:38:56.237Z,16.8
2022-12-09T03:44:26.922Z,16.6
2022-12-09T03:49:37.244Z,16.6
2022-12-09T03:55:18.845Z,16.4
2022-12-09T04:00:44.526Z,16.4
2022-12-09T04:06:11.816Z,16.3
2022-12-09T04:11:54.012Z,16.4
2022-12-09T04:17:38.543Z,16.7
2022-12-09T04:23:19.531Z,16.7
2022-12-09T04:29:06.363Z,16.6
2022-12-09T04:34:48.307Z,16.6
2022-12-09T04:40:16.789Z,16.4
2022-12-09T04:45:29.234Z,16.4
2022-12-09T04:50:57.147Z,16.3
2022-12-09T04:56:44.617Z,16.5
2022-12-09T05:02:28.190Z,16.7
2022-12-09T05:08:14.903Z,16.7
2022-12-09T05:13:43.203Z,16.6
2022-12-09T05:18:55.615Z,16.5
2022-12-09T05:24:27.208Z,16.4
2022-12-09T05:29:56.628Z,16.3
2022-12-09T05:35:50.744Z,16.3
2022-12-09T05:41:36.690Z,16.5
2022-12-09T05:47:28.394Z,16.7
2022-12-09T05:53:14.083Z,16.6
2022-12-09T05:58:48.068Z,16.6
2022-12-09T06:03:59.852Z,16.5
2022-12-09T06:09:51.243Z,16.4
2022-12-09T06:15:38.577Z,16.3
2022-12-09T06:21:22.744Z,16.4
2022-12-09T06:27:13.471Z,16.6
2022-12-09T06:32:58.454Z,16.7
2022-12-09T06:39:11.348Z,16.6
2022-12-09T06:44:40.932Z,16.5
2022-12-09T06:50:25.827Z,16.4
2022-12-09T06:56:11.670Z,16.3
2022-12-09T07:01:40.706Z,16.3
2022-12-09T07:07:30.476Z,16.4
2022-12-09T07:13:15.563Z,16.7
2022-12-09T07:19:01.798Z,16.7
2022-12-09T07:24:54.162Z,16.6
2022-12-09T07:30:44.071Z,16.4
2022-12-09T07:36:37.289Z,16.4
2022-12-09T07:42:20.556Z,16.4
2022-12-09T07:47:56.007Z,16.2
2022-12-09T07:53:46.226Z,16.4
2022-12-09T07:59:29.024Z,16.6
2022-12-09T08:05:14.875Z,16.7
2022-12-09T08:11:10.243Z,16.6
2022-12-09T08:17:01.900Z,16.6
2022-12-09T08:22:49.335Z,16.5
2022-12-09T08:28:34.957Z,16.8
2022-12-09T08:34:24.925Z,16.9
2022-12-09T08:40:10.459Z,16.8
2022-12-09T08:45:54.593Z,16.8
2022-12-09T08:51:41.545Z,16.6
2022-12-09T08:57:28.795Z,16.6
2022-12-09T09:03:13.233Z,16.8
2022-12-09T09:09:03.071Z,16.8
2022-12-09T09:14:54.747Z,16.7
2022-12-09T09:20:44.282Z,16.6
2022-12-09T09:26:29.599Z,16.5
2022-12-09T09:32:14.964Z,16.8
2022-12-09T09:38:08.146Z,16.8
2022-12-09T09:43:53.140Z,16.8
2022-12-09T09:49:23.706Z,16.7
2022-12-09T09:55:15.333Z,16.6
2022-12-09T10:01:01.898Z,16.8
2022-12-09T10:06:53.225Z,16.9
2022-12-09T10:12:43.908Z,16.9
2022-12-09T10:18:23.717Z,16.9
2022-12-09T10:24:14.348Z,16.7
2022-12-09T10:30:07.750Z,16.7
2022-12-09T10:35:59.369Z,16.9
2022-12-09T10:41:46.845Z,16.9
2022-12-09T10:47:59.572Z,16.8
2022-12-09T10:53:46.029Z,16.8
2022-12-09T10:59:32.087Z,16.7
2022-12-09T11:05:25.452Z,16.8
2022-12-09T11:11:18.046Z,16.9
2022-12-09T11:17:11.395Z,16.9
2022-12-09T11:23:02.658Z,16.9
2022-12-09T11:28:54.520Z,16.6
2022-12-09T11:35:26.678Z,16.8
2022-12-09T11:46:41.709Z,16.9
2022-12-09T11:52:55.920Z,16.9
2022-12-09T11:58:18.719Z,16.8
2022-12-09T12:04:04.281Z,16.7
2022-12-09T12:26:04.470Z,16.9
2022-12-09T12:31:49.098Z,16.8
2022-12-09T12:38:17.073Z,16.8
2022-12-09T12:44:00.203Z,17.1
2022-12-09T12:49:39.275Z,17.1
2022-12-09T12:55:57.639Z,17.1
2022-12-09T13:01:37.269Z,16.9
2022-12-09T13:07:19.695Z,16.9
2022-12-09T13:12:58.147Z,17.1
2022-12-09T13:18:43.466Z,17.2
2022-12-09T13:24:21.458Z,17.1
2022-12-09T13:35:19.141Z,16.9
2022-12-09T13:40:47.638Z,17.2
2022-12-09T13:46:26.469Z,17.3
2022-12-09T13:52:09.264Z,17.2
2022-12-09T13:57:54.689Z,17.1
2022-12-09T14:08:49.746Z,17.1
2022-12-09T14:14:27.365Z,17.3
2022-12-09T14:20:06.381Z,17.3
2022-12-09T14:25:48.184Z,17.2
2022-12-09T14:31:29.637Z,17.1
2022-12-09T14:42:44.705Z,17.2
2022-12-09T14:48:26.844Z,17.3
2022-12-09T14:54:16.168Z,17.3
2022-12-09T14:59:58.755Z,17.1
2022-12-09T15:11:41.444Z,17.1
2022-12-09T15:17:23.720Z,17.3
2022-12-09T15:23:12.127Z,17.3
2022-12-09T15:28:44.427Z,17.1
2022-12-09T15:39:48.393Z,16.9
2022-12-09T15:45:17.171Z,17.3
